Time;durP1;ratioP1;P1;durP2;ratioP2;P2;SDS_P1;SDS_P2;PMS_P1;PMS_P2;Temp;Humidity;BMP_temperature;BMP_pressure;BME280_temperature;BME280_humidity;BME280_pressure;Samples;Min_cycle;Max_cycle;Signal;HPM_P1;HPM_P2
2023/10/31 00:02:38;;;;;;;2.42;1.00;;;;;;;14.05;83.29;98529.56;10323176;28;20030;-80
2023/10/31 00:07:40;;;;;;;3.92;0.80;;;;;;;14.09;83.12;98539.63;10325663;28;20142;-81
2023/10/31 00:12:42;;;;;;;2.35;0.90;;;;;;;14.10;82.92;98545.88;10325201;28;20208;-79
2023/10/31 00:17:43;;;;;;;1.20;0.57;;;;;;;14.13;82.93;98555.34;10324852;28;20104;-78
2023/10/31 00:22:45;;;;;;;3.40;0.60;;;;;;;14.06;82.79;98564.44;10325804;28;20071;-77
2023/10/31 00:27:46;;;;;;;1.50;0.50;;;;;;;14.08;82.56;98561.50;10322808;28;20054;-80
2023/10/31 00:32:48;;;;;;;0.55;0.40;;;;;;;14.02;82.93;98557.88;10321965;28;20110;-77
2023/10/31 00:37:49;;;;;;;0.82;0.30;;;;;;;14.06;82.54;98586.06;10298836;28;20098;-71
2023/10/31 00:42:51;;;;;;;0.98;0.30;;;;;;;14.04;82.36;98592.75;10282421;28;20074;-71
2023/10/31 00:47:52;;;;;;;2.78;0.30;;;;;;;13.96;82.43;98607.47;10280924;28;20051;-75
2023/10/31 00:52:54;;;;;;;2.80;0.22;;;;;;;13.86;82.53;98591.91;10281115;28;20109;-77
2023/10/31 00:57:55;;;;;;;1.25;0.40;;;;;;;13.81;82.46;98608.00;10276550;28;20142;-73
2023/10/31 01:02:57;;;;;;;0.57;0.10;;;;;;;13.68;82.46;98617.22;10268907;28;20046;-72
2023/10/31 01:07:58;;;;;;;0.10;0.10;;;;;;;13.68;82.28;98624.47;10279689;28;20061;-74
2023/10/31 01:13:00;;;;;;;0.47;0.20;;;;;;;13.75;81.82;98629.75;10279675;28;20039;-73
2023/10/31 01:18:02;;;;;;;2.05;0.20;;;;;;;13.78;81.63;98626.56;10276747;28;20053;-75
2023/10/31 01:23:03;;;;;;;0.22;0.20;;;;;;;13.81;81.47;98624.19;10276213;28;20106;-71
2023/10/31 01:28:05;;;;;;;1.38;0.20;;;;;;;13.73;81.65;98610.25;10274524;28;20050;-74
2023/10/31 01:33:06;;;;;;;0.93;0.10;;;;;;;13.76;81.48;98607.88;10273195;28;20050;-73
2023/10/31 01:38:08;;;;;;;0.38;0.20;;;;;;;13.82;81.23;98631.25;10287446;28;20050;-72
2023/10/31 01:43:10;;;;;;;0.95;0.10;;;;;;;13.74;81.12;98622.69;10272705;28;20053;-75
2023/10/31 01:48:11;;;;;;;0.20;0.10;;;;;;;13.64;80.86;98639.50;10273325;28;20061;-72
2023/10/31 01:53:13;;;;;;;1.13;0.20;;;;;;;13.52;80.89;98641.41;10273828;28;20047;-72
2023/10/31 01:58:14;;;;;;;2.17;0.30;;;;;;;13.47;80.40;98623.25;10273337;28;20054;-73
2023/10/31 02:03:16;;;;;;;0.25;0.20;;;;;;;13.36;80.67;98632.16;10269260;28;20050;-72
2023/10/31 02:08:18;;;;;;;3.67;0.45;;;;;;;13.23;80.69;98636.72;10274686;28;20508;-70
2023/10/31 02:13:19;;;;;;;0.10;0.10;;;;;;;13.29;80.64;98645.75;10274359;28;20045;-72
2023/10/31 02:18:21;;;;;;;0.68;0.30;;;;;;;13.32;80.39;98649.88;10321500;28;20050;-70
2023/10/31 02:23:22;;;;;;;2.50;0.20;;;;;;;13.34;80.48;98651.28;10318768;28;20042;-70
2023/10/31 02:28:27;;;;;;;0.40;0.10;;;;;;;13.34;80.48;98647.78;10333648;28;20046;-70
2023/10/31 02:33:29;;;;;;;1.83;0.20;;;;;;;13.32;80.35;98641.78;10319401;28;20038;-71
2023/10/31 02:38:31;;;;;;;1.40;0.20;;;;;;;13.29;80.31;98646.59;10317549;28;20046;-70
2023/10/31 02:43:33;;;;;;;0.10;0.10;;;;;;;13.17;79.97;98640.38;10276067;28;20043;-70
2023/10/31 02:48:39;;;;;;;0.38;0.10;;;;;;;13.08;80.10;98649.88;10319544;28;20050;-70
2023/10/31 02:53:40;;;;;;;0.13;0.10;;;;;;;12.94;80.09;98667.34;10319433;28;20070;-70
2023/10/31 02:58:42;;;;;;;0.30;0.10;;;;;;;12.89;80.15;98678.81;10319099;28;20120;-71
2023/10/31 03:03:43;;;;;;;1.33;0.13;;;;;;;12.83;79.87;98694.03;10316842;28;20125;-70
2023/10/31 03:08:45;;;;;;;0.52;0.20;;;;;;;12.76;79.95;98687.94;10317599;28;20054;-70
2023/10/31 03:13:46;;;;;;;1.95;0.10;;;;;;;12.65;80.21;98691.41;10314964;28;20397;-69
2023/10/31 03:18:48;;;;;;;0.95;0.22;;;;;;;12.64;79.82;98697.88;10315665;28;20093;-69
2023/10/31 03:23:52;;;;;;;1.30;1.20;;;;;;;12.62;79.76;98710.75;10317134;28;20142;-69
2023/10/31 03:28:57;;;;;;;1.45;0.30;;;;;;;12.62;79.52;98732.34;10316348;28;20050;-69
2023/10/31 03:33:58;;;;;;;0.30;0.20;;;;;;;12.57;79.68;98732.19;10316286;28;20062;-69
2023/10/31 03:39:00;;;;;;;0.50;0.40;;;;;;;12.55;79.65;98742.38;10332721;28;20053;-69
2023/10/31 03:44:01;;;;;;;0.95;0.30;;;;;;;12.47;79.75;98752.41;10291387;28;20053;-70
2023/10/31 03:49:03;;;;;;;0.63;0.30;;;;;;;12.53;79.35;98768.72;10316513;28;20054;-70
2023/10/31 03:54:04;;;;;;;0.30;0.22;;;;;;;12.49;79.65;98781.84;10315305;28;20061;-69
2023/10/31 03:59:06;;;;;;;0.95;0.20;;;;;;;12.47;79.85;98787.44;10317561;28;20038;-70
2023/10/31 04:04:08;;;;;;;0.75;0.30;;;;;;;12.49;79.63;98785.34;10329447;28;20042;-70
2023/10/31 04:09:09;;;;;;;0.65;0.20;;;;;;;12.44;79.66;98790.63;10314890;28;20060;-68
2023/10/31 04:14:11;;;;;;;1.77;0.20;;;;;;;12.47;79.87;98789.31;10314772;28;20050;-69
2023/10/31 04:19:15;;;;;;;1.35;0.15;;;;;;;12.50;79.59;98786.19;10315340;28;20528;-70
2023/10/31 04:24:17;;;;;;;0.40;0.20;;;;;;;12.55;79.71;98793.59;10313203;28;20123;-69
2023/10/31 04:29:18;;;;;;;0.30;0.20;;;;;;;12.59;79.30;98792.06;10329143;28;20065;-67
2023/10/31 04:34:20;;;;;;;3.60;0.57;;;;;;;12.62;79.25;98791.63;10313790;28;20490;-68
2023/10/31 04:39:22;;;;;;;0.32;0.20;;;;;;;12.66;79.51;98809.81;10314165;28;20536;-70
2023/10/31 04:44:23;;;;;;;0.75;0.25;;;;;;;12.63;79.28;98812.94;10314819;28;20481;-69
2023/10/31 04:49:25;;;;;;;1.55;0.20;;;;;;;12.64;79.37;98819.19;10329543;28;20490;-70
2023/10/31 04:54:26;;;;;;;1.95;0.20;;;;;;;12.40;80.14;98819.06;10315331;28;20068;-72
2023/10/31 04:59:27;;;;;;;1.38;0.40;;;;;;;12.42;79.75;98816.97;10314849;28;20481;-71
2023/10/31 05:04:29;;;;;;;0.80;0.50;;;;;;;12.51;79.78;98806.69;10313074;28;20140;-70
2023/10/31 05:09:31;;;;;;;0.43;0.20;;;;;;;12.54;79.40;98811.63;10329747;28;20097;-72
2023/10/31 05:14:32;;;;;;;0.22;0.20;;;;;;;12.45;79.83;98821.88;10316764;28;20057;-70
2023/10/31 05:19:33;;;;;;;0.93;0.30;;;;;;;12.39;79.55;98822.78;10317328;28;20044;-72
2023/10/31 05:24:36;;;;;;;1.73;0.20;;;;;;;12.45;79.30;98811.09;10316514;28;20068;-72
2023/10/31 05:29:39;;;;;;;3.70;0.52;;;;;;;12.51;79.55;98820.16;10319516;28;20149;-72
2023/10/31 05:34:41;;;;;;;4.15;0.20;;;;;;;12.55;79.40;98826.75;10315068;28;20077;-71
2023/10/31 05:39:42;;;;;;;0.70;0.35;;;;;;;12.54;79.55;98835.03;10323460;28;20057;-72
2023/10/31 05:44:45;;;;;;;2.45;0.40;;;;;;;12.57;79.19;98835.44;10321259;28;20050;-70
2023/10/31 05:49:46;;;;;;;1.73;0.35;;;;;;;12.65;79.18;98842.38;10321262;28;20057;-72
2023/10/31 05:54:48;;;;;;;0.70;0.20;;;;;;;12.80;78.52;98850.91;10330114;28;20034;-72
2023/10/31 05:59:49;;;;;;;2.63;0.40;;;;;;;12.82;78.67;98853.38;10324441;28;20057;-71
2023/10/31 06:04:51;;;;;;;0.45;0.30;;;;;;;12.88;78.84;98857.84;10337555;28;20115;-69
2023/10/31 06:09:52;;;;;;;0.60;0.43;;;;;;;12.91;78.75;98860.09;10325913;28;20080;-72
2023/10/31 06:14:54;;;;;;;0.30;0.30;;;;;;;12.96;78.63;98867.50;10284185;28;20138;-65
2023/10/31 06:19:55;;;;;;;0.88;0.30;;;;;;;12.93;78.52;98873.34;10308294;28;20065;-64
2023/10/31 06:24:58;;;;;;;0.50;0.30;;;;;;;12.98;78.59;98876.19;10317735;28;20124;-63
2023/10/31 06:30:00;;;;;;;0.68;0.30;;;;;;;13.02;78.71;98880.09;10317281;28;20053;-64
2023/10/31 06:35:24;;;;;;;4.63;0.45;;;;;;;13.01;78.51;98879.25;10317576;28;20050;-63
2023/10/31 06:40:26;;;;;;;0.63;0.30;;;;;;;12.97;78.89;98891.53;10317221;28;20038;-65
2023/10/31 06:45:27;;;;;;;1.00;0.40;;;;;;;13.01;78.70;98908.09;10320160;28;20682;-60
2023/10/31 06:50:29;;;;;;;0.57;0.20;;;;;;;13.01;78.69;98921.56;10300606;28;20458;-61
2023/10/31 06:55:31;;;;;;;0.40;0.20;;;;;;;13.03;78.52;98943.75;10317794;28;20104;-60
2023/10/31 07:00:32;;;;;;;0.38;0.17;;;;;;;13.01;78.40;98943.16;10317767;28;20038;-60
2023/10/31 07:05:34;;;;;;;1.98;0.20;;;;;;;13.05;78.15;98945.19;10316611;28;20050;-68
2023/10/31 07:10:36;;;;;;;0.73;0.10;;;;;;;13.12;77.77;98947.81;10318209;28;20509;-66
2023/10/31 07:15:38;;;;;;;0.65;0.30;;;;;;;13.17;77.53;98944.41;10317741;28;20042;-66
2023/10/31 07:20:40;;;;;;;1.10;0.68;;;;;;;13.20;77.66;98960.16;10316409;28;20042;-65
2023/10/31 07:25:43;;;;;;;0.68;0.10;;;;;;;13.20;77.65;98960.16;10307815;28;20066;-64
2023/10/31 07:30:45;;;;;;;2.45;0.20;;;;;;;13.18;77.22;98973.88;10315520;28;20046;-65
2023/10/31 07:35:46;;;;;;;1.17;0.20;;;;;;;13.21;77.27;98980.69;10315480;28;20042;-66
2023/10/31 07:40:48;;;;;;;0.40;0.22;;;;;;;13.22;77.29;98985.84;10318676;28;20046;-65
2023/10/31 07:45:50;;;;;;;0.95;0.20;;;;;;;13.21;76.79;98991.47;10316290;28;20133;-65
2023/10/31 07:50:51;;;;;;;1.05;0.20;;;;;;;13.23;76.69;98994.75;10317466;28;20125;-63
2023/10/31 07:55:52;;;;;;;1.00;0.60;;;;;;;13.19;76.51;98998.97;10311291;28;20054;-63
2023/10/31 08:00:54;;;;;;;1.17;0.30;;;;;;;13.23;76.38;99006.41;10324823;28;20141;-63
2023/10/31 08:05:55;;;;;;;1.65;0.30;;;;;;;13.11;76.38;99010.88;10311287;28;20046;-64
2023/10/31 08:10:58;;;;;;;0.77;0.20;;;;;;;12.82;77.02;99015.19;10316888;28;20053;-66
2023/10/31 08:16:01;;;;;;;1.27;0.20;;;;;;;12.73;76.94;99030.81;10333520;28;20128;-64
2023/10/31 08:21:03;;;;;;;0.47;0.20;;;;;;;12.81;76.83;99033.22;10288923;28;20693;-63
2023/10/31 08:26:05;;;;;;;1.95;0.22;;;;;;;12.92;76.75;99028.97;10315894;28;20054;-64
2023/10/31 08:31:06;;;;;;;2.95;0.17;;;;;;;13.03;76.38;99040.88;10315399;28;20042;-64
2023/10/31 08:36:08;;;;;;;0.82;0.20;;;;;;;12.98;76.59;99043.44;10313874;28;20042;-65
2023/10/31 08:41:10;;;;;;;0.30;0.13;;;;;;;12.83;77.04;99052.69;10283730;28;20109;-65
2023/10/31 08:46:12;;;;;;;0.45;0.20;;;;;;;12.80;77.25;99060.44;10275418;28;20498;-67
2023/10/31 08:51:13;;;;;;;0.50;0.30;;;;;;;12.63;77.36;99065.53;10311736;28;20097;-68
2023/10/31 08:56:15;;;;;;;0.40;0.20;;;;;;;12.57;77.69;99074.53;10311160;28;20053;-66
2023/10/31 09:01:16;;;;;;;0.55;0.20;;;;;;;12.62;77.41;99085.47;10313350;28;20137;-66
2023/10/31 09:06:18;;;;;;;0.43;0.20;;;;;;;12.49;77.93;99095.31;10313734;28;20070;-67
2023/10/31 09:11:19;;;;;;;1.08;0.20;;;;;;;12.52;78.10;99114.78;10315141;28;20371;-68
2023/10/31 09:16:21;;;;;;;1.05;0.32;;;;;;;12.66;77.92;99111.78;10309696;28;20047;-65
2023/10/31 09:21:22;;;;;;;0.60;0.30;;;;;;;12.90;77.89;99111.97;10330878;28;20053;-66
2023/10/31 09:26:24;;;;;;;1.15;0.40;;;;;;;13.16;76.88;99120.84;10316731;28;20050;-67
2023/10/31 09:31:25;;;;;;;0.85;0.30;;;;;;;13.22;77.25;99131.56;10315240;28;20546;-67
2023/10/31 09:36:27;;;;;;;0.88;0.30;;;;;;;13.42;76.87;99131.38;10314279;28;20054;-66
2023/10/31 09:41:32;;;;;;;0.93;0.10;;;;;;;13.62;76.45;99138.44;10273814;28;20421;-66
2023/10/31 09:46:34;;;;;;;2.17;0.30;;;;;;;13.64;76.37;99142.56;10300062;28;20050;-66
2023/10/31 09:51:37;;;;;;;2.17;0.30;;;;;;;13.62;76.03;99152.75;10312134;28;20063;-66
2023/10/31 09:56:39;;;;;;;1.38;0.28;;;;;;;13.71;75.22;99147.91;10312962;28;20053;-66
2023/10/31 10:01:40;;;;;;;0.50;0.22;;;;;;;13.88;74.90;99145.38;10314600;28;20058;-66
2023/10/31 10:06:58;;;;;;;1.20;0.13;;;;;;;14.12;74.48;99143.63;10312903;28;20069;-65
2023/10/31 10:12:00;;;;;;;0.77;0.20;;;;;;;14.13;74.24;99145.28;10314432;28;20046;-65
2023/10/31 10:17:01;;;;;;;0.50;0.20;;;;;;;14.22;73.93;99149.31;10311634;28;20150;-64
2023/10/31 10:22:04;;;;;;;2.40;0.20;;;;;;;14.31;73.51;99148.97;10314700;28;20057;-63
2023/10/31 10:27:08;;;;;;;1.67;0.28;;;;;;;14.58;72.87;99144.84;10311671;28;20046;-63
2023/10/31 10:32:09;;;;;;;1.25;0.10;;;;;;;14.45;71.71;99155.84;10297034;28;20070;-63
2023/10/31 10:37:12;;;;;;;0.43;0.10;;;;;;;14.61;71.48;99138.16;10321239;28;20070;-63
2023/10/31 10:42:17;;;;;;;1.35;0.10;;;;;;;14.65;71.33;99148.28;10320091;28;20047;-63
2023/10/31 10:47:19;;;;;;;1.42;0.30;;;;;;;14.63;70.74;99138.75;10317773;28;20043;-62
2023/10/31 10:52:38;;;;;;;1.20;0.20;;;;;;;14.56;70.30;99136.16;10321564;28;20062;-63
2023/10/31 10:58:08;;;;;;;1.00;0.10;;;;;;;14.72;70.23;99133.84;10294745;28;20761;-63
2023/10/31 11:03:10;;;;;;;2.38;0.20;;;;;;;14.79;70.42;99135.38;10317370;28;20077;-62
2023/10/31 11:08:11;;;;;;;1.58;0.10;;;;;;;14.87;69.76;99132.31;10317858;28;20157;-62
2023/10/31 11:13:14;;;;;;;0.10;0.10;;;;;;;15.07;69.23;99131.97;10318295;28;20454;-62
2023/10/31 11:18:15;;;;;;;0.08;0.03;;;;;;;15.30;69.29;99140.31;10319719;28;20054;-63
2023/10/31 11:23:17;;;;;;;1.40;0.10;;;;;;;15.26;67.81;99131.84;10318163;28;20046;-62
2023/10/31 11:28:19;;;;;;;0.80;0.10;;;;;;;15.13;66.37;99123.97;10320381;28;20049;-62
2023/10/31 11:33:21;;;;;;;0.28;0.10;;;;;;;15.17;65.98;99131.38;10318906;28;20070;-61
2023/10/31 11:38:32;;;;;;;0.10;0.10;;;;;;;15.30;65.96;99140.31;10315146;28;20536;-63
2023/10/31 11:43:40;;;;;;;0.10;0.10;;;;;;;15.29;65.36;99141.38;10316160;28;20429;-63
2023/10/31 11:48:46;;;;;;;0.10;0.00;;;;;;;15.41;64.90;99153.03;10344209;28;20153;-63
2023/10/31 11:53:52;;;;;;;2.50;0.13;;;;;;;15.38;64.78;99154.31;10317151;28;20042;-62
2023/10/31 11:58:58;;;;;;;1.08;0.00;;;;;;;15.46;64.76;99145.00;10315846;28;20141;-61
2023/10/31 12:04:00;;;;;;;1.50;0.00;;;;;;;15.56;64.79;99155.22;10315431;28;20140;-67
2023/10/31 12:09:03;;;;;;;0.30;0.10;;;;;;;15.61;64.08;99163.47;10316669;28;20109;-63
2023/10/31 12:14:05;;;;;;;0.77;0.10;;;;;;;15.60;63.24;99178.06;10315214;28;20050;-61
2023/10/31 12:19:07;;;;;;;0.77;0.10;;;;;;;15.61;61.86;99177.00;10316019;28;20048;-61
2023/10/31 12:24:10;;;;;;;0.00;0.00;;;;;;;15.65;61.29;99187.13;10311089;28;20038;-62
2023/10/31 12:29:14;;;;;;;1.92;0.10;;;;;;;16.00;62.20;99197.09;10312952;28;20070;-63
2023/10/31 12:34:17;;;;;;;0.30;0.10;;;;;;;16.04;62.67;99198.28;10313815;28;20057;-63
2023/10/31 12:39:22;;;;;;;3.83;0.35;;;;;;;16.02;62.05;99207.72;10334193;28;20046;-62
2023/10/31 12:44:26;;;;;;;0.30;0.10;;;;;;;16.02;62.37;99203.13;10314355;28;20050;-64
2023/10/31 12:49:28;;;;;;;0.00;0.00;;;;;;;16.11;63.03;99203.53;10317843;28;20053;-64
2023/10/31 12:54:34;;;;;;;4.93;0.20;;;;;;;15.98;62.27;99207.38;10319066;28;20062;-63
2023/10/31 12:59:40;;;;;;;0.15;0.05;;;;;;;16.16;62.72;99200.94;10313103;28;20611;-62
2023/10/31 13:04:42;;;;;;;0.52;0.10;;;;;;;16.33;62.65;99213.72;10315103;28;20042;-64
2023/10/31 13:09:43;;;;;;;1.35;0.10;;;;;;;16.44;61.82;99221.81;10315529;28;20458;-64
2023/10/31 13:14:45;;;;;;;0.73;0.10;;;;;;;16.54;61.52;99215.75;10315581;28;20162;-62
2023/10/31 13:19:46;;;;;;;5.97;0.20;;;;;;;16.73;61.32;99216.38;10288542;28;20044;-65
2023/10/31 13:24:48;;;;;;;1.95;0.20;;;;;;;17.12;61.13;99221.97;10312684;28;20136;-67
2023/10/31 13:29:50;;;;;;;0.55;0.10;;;;;;;17.27;60.90;99215.94;10298751;28;20141;-66
2023/10/31 13:34:52;;;;;;;1.65;0.10;;;;;;;17.42;60.59;99216.19;10289199;28;20046;-67
2023/10/31 13:39:53;;;;;;;1.42;0.10;;;;;;;17.30;60.54;99220.91;10311837;28;20050;-66
2023/10/31 13:44:55;;;;;;;0.90;0.17;;;;;;;17.17;60.51;99229.38;10315758;28;20038;-65
2023/10/31 13:49:56;;;;;;;2.20;0.20;;;;;;;17.09;60.37;99230.59;10314858;28;20124;-65
2023/10/31 13:54:58;;;;;;;1.15;0.30;;;;;;;17.19;59.96;99222.63;10315374;28;20069;-66
2023/10/31 14:00:00;;;;;;;1.42;0.10;;;;;;;17.10;60.50;99223.25;10311928;28;20046;-65
2023/10/31 14:05:04;;;;;;;1.65;0.10;;;;;;;16.81;59.85;99221.44;10309324;28;20042;-65
2023/10/31 14:10:06;;;;;;;2.35;0.17;;;;;;;16.67;60.13;99228.22;10316786;28;20133;-64
2023/10/31 14:15:09;;;;;;;2.45;0.30;;;;;;;16.88;59.93;99231.31;10320709;28;20210;-64
2023/10/31 14:20:11;;;;;;;2.38;0.10;;;;;;;16.81;59.88;99239.59;10292141;28;20050;-65
2023/10/31 14:25:12;;;;;;;4.65;0.70;;;;;;;16.87;60.22;99240.53;10320024;28;20759;-65
2023/10/31 14:30:14;;;;;;;1.27;0.10;;;;;;;16.64;59.92;99240.38;10322044;28;20046;-67
2023/10/31 14:35:15;;;;;;;3.13;0.10;;;;;;;16.60;60.06;99247.34;10318678;28;20046;-65
2023/10/31 14:40:17;;;;;;;4.95;0.43;;;;;;;16.65;59.44;99252.06;10317011;28;20391;-64
2023/10/31 14:45:19;;;;;;;2.28;0.25;;;;;;;16.63;58.64;99263.16;10317189;28;20377;-64
2023/10/31 14:50:23;;;;;;;1.05;0.20;;;;;;;16.47;57.98;99277.50;10319663;28;20053;-63
2023/10/31 14:55:25;;;;;;;0.28;0.10;;;;;;;16.58;57.82;99276.63;10317939;28;20045;-63
2023/10/31 15:00:26;;;;;;;1.92;0.17;;;;;;;16.53;58.12;99273.81;10318143;28;20054;-63
2023/10/31 15:05:28;;;;;;;1.45;0.20;;;;;;;16.60;58.14;99271.78;10317390;28;20082;-64
2023/10/31 15:10:29;;;;;;;5.18;0.25;;;;;;;16.45;58.31;99287.78;10319154;28;20116;-63
2023/10/31 15:15:31;;;;;;;0.95;0.40;;;;;;;16.42;58.32;99291.75;10319561;28;20488;-64
2023/10/31 15:20:33;;;;;;;0.90;0.15;;;;;;;16.34;58.60;99285.91;10318927;28;20053;-62
2023/10/31 15:25:34;;;;;;;2.40;0.20;;;;;;;16.24;58.65;99287.34;10315867;28;20034;-62
2023/10/31 15:30:36;;;;;;;6.43;0.82;;;;;;;16.21;59.12;99292.41;10333799;28;20478;-63
2023/10/31 15:35:37;;;;;;;0.88;0.30;;;;;;;16.14;58.83;99302.56;10290467;28;20049;-63
2023/10/31 15:40:39;;;;;;;5.55;0.65;;;;;;;16.05;58.87;99297.53;10316977;28;20093;-63
2023/10/31 15:45:40;;;;;;;3.92;0.82;;;;;;;15.77;59.19;99314.50;10315429;28;20051;-63
2023/10/31 15:50:42;;;;;;;4.60;0.30;;;;;;;15.58;59.04;99321.91;10316176;28;20129;-63
2023/10/31 15:55:44;;;;;;;1.35;0.20;;;;;;;15.50;59.19;99329.53;10330510;28;20121;-64
2023/10/31 16:00:46;;;;;;;4.03;0.30;;;;;;;15.34;59.46;99339.16;10326134;28;20520;-64
2023/10/31 16:05:47;;;;;;;6.63;0.20;;;;;;;15.28;59.13;99351.72;10274344;28;20054;-64
2023/10/31 16:10:49;;;;;;;0.82;0.20;;;;;;;15.23;59.52;99355.13;10304696;28;20042;-65
2023/10/31 16:15:53;;;;;;;6.35;0.40;;;;;;;15.10;59.99;99349.91;10314550;28;20592;-71
2023/10/31 16:20:54;;;;;;;2.08;0.40;;;;;;;15.04;60.31;99364.38;10318112;28;20066;-73
2023/10/31 16:25:56;;;;;;;5.00;0.32;;;;;;;14.95;60.48;99381.97;10317170;28;20042;-73
2023/10/31 16:30:57;;;;;;;2.80;0.35;;;;;;;14.99;60.68;99388.59;10327954;28;20057;-71
2023/10/31 16:35:58;;;;;;;3.80;0.30;;;;;;;15.00;60.48;99387.53;10262888;28;20501;-72
2023/10/31 16:41:02;;;;;;;2.00;0.47;;;;;;;15.07;60.82;99386.41;10288159;28;20053;-73
2023/10/31 16:46:03;;;;;;;2.85;0.50;;;;;;;15.05;61.01;99395.81;10322133;28;20038;-73
2023/10/31 16:51:17;;;;;;;4.40;0.40;;;;;;;15.02;61.03;99407.91;10317880;28;20046;-78
2023/10/31 16:56:20;;;;;;;5.00;0.40;;;;;;;15.01;61.21;99410.84;10311294;28;20124;-76
2023/10/31 17:01:21;;;;;;;0.90;0.30;;;;;;;15.05;61.55;99415.56;10309039;28;20113;-71
2023/10/31 17:06:23;;;;;;;2.90;0.40;;;;;;;15.06;61.68;99421.81;10327598;28;20039;-68
2023/10/31 17:11:25;;;;;;;4.13;0.60;;;;;;;15.04;62.06;99426.63;10336097;28;20072;-73
2023/10/31 17:16:28;;;;;;;1.15;0.57;;;;;;;15.00;62.05;99434.38;10336265;28;20050;-74
2023/10/31 17:21:30;;;;;;;4.13;0.63;;;;;;;15.09;62.34;99437.59;10334682;28;20042;-74
2023/10/31 17:26:31;;;;;;;4.65;0.98;;;;;;;15.10;62.46;99446.53;10327472;28;20120;-74
2023/10/31 17:31:34;;;;;;;2.83;0.60;;;;;;;15.19;62.42;99439.78;10347025;28;20073;-75
2023/10/31 17:36:36;;;;;;;3.50;0.60;;;;;;;15.13;62.63;99441.50;10346985;28;20058;-73
2023/10/31 17:41:38;;;;;;;2.30;0.40;;;;;;;15.16;62.75;99451.84;10344451;28;20046;-73
2023/10/31 17:46:39;;;;;;;6.60;0.52;;;;;;;15.08;62.87;99458.41;10336463;28;20053;-73
2023/10/31 17:51:42;;;;;;;2.80;0.50;;;;;;;15.05;63.48;99464.28;10325361;28;20169;-70
2023/10/31 17:56:43;;;;;;;4.60;0.50;;;;;;;15.11;63.28;99470.69;10282071;28;20057;-72
2023/10/31 18:01:47;;;;;;;4.63;0.43;;;;;;;15.06;63.15;99470.53;10349405;28;20046;-74
2023/10/31 18:06:51;;;;;;;5.07;0.50;;;;;;;15.12;63.52;99477.72;10325000;28;20039;-72
2023/10/31 18:11:53;;;;;;;3.67;0.40;;;;;;;15.10;63.69;99487.16;10320080;28;20162;-70
2023/10/31 18:16:54;;;;;;;2.97;0.45;;;;;;;15.03;63.87;99496.19;10333963;28;20046;-71
2023/10/31 18:21:57;;;;;;;3.53;0.50;;;;;;;14.97;64.27;99499.78;10308640;28;20043;-73
2023/10/31 18:26:59;;;;;;;1.73;0.68;;;;;;;15.02;64.31;99501.81;10327777;28;20453;-73
2023/10/31 18:32:01;;;;;;;2.83;0.52;;;;;;;14.97;64.34;99507.91;10323536;28;20137;-68
2023/10/31 18:37:02;;;;;;;2.53;0.43;;;;;;;14.74;65.13;99522.09;10321670;28;20118;-71
2023/10/31 18:42:04;;;;;;;3.17;0.47;;;;;;;14.03;67.69;99536.81;10330792;28;20264;-76
2023/10/31 18:47:11;;;;;;;2.20;0.45;;;;;;;13.53;69.71;99548.34;10361289;28;20051;-73
2023/10/31 18:52:12;;;;;;;2.30;0.40;;;;;;;13.45;69.98;99546.72;10342102;28;20054;-74
2023/10/31 18:57:14;;;;;;;2.40;0.50;;;;;;;13.41;70.29;99547.34;10336388;28;20054;-72
2023/10/31 19:02:15;;;;;;;3.67;0.88;;;;;;;13.36;70.51;99542.59;10347418;28;20069;-73
2023/10/31 19:07:17;;;;;;;6.70;1.00;;;;;;;13.50;70.37;99532.56;10344811;28;20023;-73
2023/10/31 19:12:18;;;;;;;3.83;0.68;;;;;;;13.44;70.72;99536.94;10355683;28;20053;-72
2023/10/31 19:17:20;;;;;;;3.75;0.40;;;;;;;13.51;71.08;99534.22;10343367;28;20070;-72
2023/10/31 19:22:21;;;;;;;6.97;1.10;;;;;;;13.54;70.96;99538.34;10342165;28;20081;-71
2023/10/31 19:27:23;;;;;;;1.92;0.40;;;;;;;13.54;71.23;99541.88;10296608;28;20115;-70
2023/10/31 19:32:24;;;;;;;1.90;0.60;;;;;;;13.57;71.26;99546.84;10297750;28;20042;-71
2023/10/31 19:37:26;;;;;;;2.80;0.70;;;;;;;13.60;71.33;99553.69;10322748;28;20026;-71
2023/10/31 19:42:28;;;;;;;2.35;0.68;;;;;;;13.46;71.77;99569.94;10321532;28;20054;-72
2023/10/31 19:47:29;;;;;;;2.40;0.77;;;;;;;13.42;71.93;99566.03;10345938;28;20050;-72
2023/10/31 19:52:31;;;;;;;3.65;1.10;;;;;;;13.44;71.90;99566.63;10331702;28;20049;-72
2023/10/31 19:57:33;;;;;;;3.22;0.60;;;;;;;13.52;72.10;99564.75;10372566;28;20053;-72
2023/10/31 20:02:34;;;;;;;2.58;0.55;;;;;;;13.56;71.99;99561.38;10364591;28;20077;-73
2023/10/31 20:07:36;;;;;;;3.70;0.57;;;;;;;13.58;72.10;99586.31;10322242;28;20039;-70
2023/10/31 20:12:37;;;;;;;2.80;0.40;;;;;;;13.63;72.07;99585.69;10347241;28;20054;-71
2023/10/31 20:17:39;;;;;;;0.80;0.47;;;;;;;13.62;72.19;99586.72;10340689;28;20146;-71
2023/10/31 20:22:40;;;;;;;0.70;0.40;;;;;;;13.65;72.26;99597.09;10308228;28;20102;-71
2023/10/31 20:27:43;;;;;;;3.83;0.60;;;;;;;13.62;72.44;99606.44;10299819;28;20486;-73
2023/10/31 20:32:55;;;;;;;2.67;0.52;;;;;;;13.65;72.46;99592.53;10474804;27;20442;-74
2023/10/31 20:37:57;;;;;;;3.30;0.40;;;;;;;13.62;72.54;99592.09;10434510;28;20125;-72
2023/10/31 20:42:58;;;;;;;4.22;0.77;;;;;;;13.58;72.87;99599.00;10412299;28;20038;-72
2023/10/31 20:48:01;;;;;;;2.97;0.30;;;;;;;13.55;72.86;99592.16;10420566;28;20045;-70
2023/10/31 20:53:02;;;;;;;1.50;0.30;;;;;;;13.57;73.17;99591.94;10426572;28;20037;-70
2023/10/31 20:58:04;;;;;;;3.75;0.45;;;;;;;13.54;73.02;99595.06;10415070;28;20404;-70
2023/10/31 21:03:06;;;;;;;3.03;0.40;;;;;;;13.53;73.15;99602.34;10458595;28;20557;-71
2023/10/31 21:08:08;;;;;;;2.90;0.50;;;;;;;13.47;73.29;99592.41;10459818;28;20029;-71
2023/10/31 21:13:10;;;;;;;1.58;0.47;;;;;;;13.54;72.88;99585.06;10448596;28;20088;-71
2023/10/31 21:18:11;;;;;;;3.05;0.82;;;;;;;13.48;73.11;99584.06;10455043;28;20060;-73
2023/10/31 21:23:14;;;;;;;1.50;0.50;;;;;;;13.54;73.40;99586.97;10450513;28;20061;-71
2023/10/31 21:28:16;;;;;;;3.00;0.80;;;;;;;13.52;73.31;99594.44;10467571;28;20037;-70
2023/10/31 21:33:19;;;;;;;5.38;0.70;;;;;;;13.54;73.40;99597.75;10472199;28;20053;-70
2023/10/31 21:38:21;;;;;;;1.02;0.70;;;;;;;13.56;73.79;99592.97;10478545;28;20045;-70
2023/10/31 21:43:23;;;;;;;4.28;1.00;;;;;;;13.57;73.54;99591.94;10459117;28;20054;-71
2023/10/31 21:48:25;;;;;;;2.65;0.55;;;;;;;13.59;73.29;99587.97;10448037;28;20046;-69
2023/10/31 21:53:26;;;;;;;2.45;0.45;;;;;;;13.61;73.30;99585.88;10384837;28;20053;-70
2023/10/31 21:58:28;;;;;;;2.60;0.50;;;;;;;13.58;73.39;99591.72;10449880;28;20056;-70
2023/10/31 22:03:30;;;;;;;2.70;0.50;;;;;;;13.57;73.42;99597.34;10443196;28;20073;-70
2023/10/31 22:08:31;;;;;;;2.50;0.70;;;;;;;13.57;73.46;99597.34;10435902;28;20043;-70
2023/10/31 22:13:33;;;;;;;2.30;0.50;;;;;;;13.62;73.39;99602.91;10445066;28;20059;-69
2023/10/31 22:18:34;;;;;;;3.15;0.50;;;;;;;13.69;73.15;99599.16;10438032;28;20091;-70
2023/10/31 22:23:39;;;;;;;2.42;1.58;;;;;;;13.68;73.40;99602.91;10389522;28;20049;-70
2023/10/31 22:28:41;;;;;;;4.88;0.98;;;;;;;13.72;73.42;99594.34;10400785;28;20053;-69
2023/10/31 22:33:43;;;;;;;1.25;0.50;;;;;;;13.80;73.21;99596.81;10387463;28;20132;-70
2023/10/31 22:38:45;;;;;;;1.60;0.60;;;;;;;13.78;73.31;99590.78;10398406;28;20129;-71
2023/10/31 22:43:46;;;;;;;5.22;0.63;;;;;;;13.85;73.03;99586.19;10377336;28;20052;-70
2023/10/31 22:48:48;;;;;;;1.17;0.47;;;;;;;13.78;72.98;99607.81;10399792;28;20045;-72
2023/10/31 22:53:49;;;;;;;3.55;0.45;;;;;;;13.76;73.27;99603.69;10412651;28;20049;-72
2023/10/31 22:58:51;;;;;;;2.08;0.45;;;;;;;13.71;73.36;99601.63;10433342;28;20056;-71
2023/10/31 23:03:52;;;;;;;2.35;0.40;;;;;;;13.72;73.31;99591.66;10419133;28;20049;-70
2023/10/31 23:08:54;;;;;;;2.47;0.60;;;;;;;13.68;73.24;99594.81;10467671;28;20055;-69
2023/10/31 23:14:00;;;;;;;2.13;0.38;;;;;;;13.76;73.02;99592.88;10456716;28;20032;-71
2023/10/31 23:19:01;;;;;;;2.28;0.45;;;;;;;13.68;73.27;99592.09;10451947;28;20084;-68
2023/10/31 23:24:03;;;;;;;3.25;0.70;;;;;;;13.71;73.09;99587.31;10449255;28;20033;-71